PBD1241 ULAA-EFKU
Flight info
| Callsign | PBD1241 |
|---|---|
| Flight time | 1h 39m |
| Altitude | 36000 |
| Route | RUGOK N746 MAGEM T453 INLID T821 DELUL M59 UTITA L261 KOMEK/N0465F360 DCT ETENA |
| Aircraft | B738/M-SDE2E3FGHIRWXY/LB1 |
Departure
| Time | 2026-05-04 16:46 |
|---|---|
| Airport | Talagi Airport (ULAA) |
Arrival
| Time | 2026-05-04 18:25 |
|---|---|
| Airport | Kuopio Airport (EFKU) |
| Time | Latitude | Longitude | Altitude | Speed | Heading |
|---|---|---|---|---|---|
| 2026-05-04 16:09 | 64.59771 | 40.71510 | 39 ft | 0 kts | 6° |
| 2026-05-04 16:41 | 64.59829 | 40.71366 | 39 ft | 9 kts | 283° |
| 2026-05-04 16:42 | 64.59869 | 40.70565 | 38 ft | 24 kts | 276° |
| 2026-05-04 16:43 | 64.59912 | 40.69685 | 38 ft | 31 kts | 276° |
| 2026-05-04 16:43 | 64.59970 | 40.69016 | 39 ft | 14 kts | 348° |
| 2026-05-04 16:43 | 64.60028 | 40.69042 | 39 ft | 0 kts | 7° |
| 2026-05-04 16:44 | 64.60137 | 40.69083 | 36 ft | 8 kts | 33° |
| 2026-05-04 16:45 | 64.60117 | 40.69801 | 36 ft | 74 kts | 97° |
| 2026-05-04 16:46 | 64.59658 | 40.77066 | 1770 ft | 156 kts | 99° |
| 2026-05-04 16:46 | 64.58219 | 40.80722 | 2981 ft | 192 kts | 180° |
| 2026-05-04 16:47 | 64.56221 | 40.77143 | 4065 ft | 210 kts | 260° |
| 2026-05-04 16:47 | 64.56479 | 40.71102 | 4526 ft | 242 kts | 277° |
| 2026-05-04 16:48 | 64.56423 | 40.58871 | 6805 ft | 253 kts | 261° |
| 2026-05-04 16:48 | 64.56105 | 40.54821 | 7659 ft | 255 kts | 257° |
| 2026-05-04 16:49 | 64.55199 | 40.46764 | 9398 ft | 259 kts | 254° |
| 2026-05-04 16:49 | 64.54049 | 40.38487 | 10384 ft | 289 kts | 252° |
| 2026-05-04 16:50 | 64.52612 | 40.29081 | 10757 ft | 333 kts | 251° |
| 2026-05-04 16:50 | 64.50923 | 40.18538 | 11599 ft | 356 kts | 250° |
| 2026-05-04 16:51 | 64.49163 | 40.07792 | 13132 ft | 357 kts | 250° |
| 2026-05-04 16:51 | 64.48271 | 40.02389 | 13816 ft | 360 kts | 250° |
| 2026-05-04 16:51 | 64.46459 | 39.91449 | 15000 ft | 366 kts | 250° |
| 2026-05-04 16:52 | 64.44619 | 39.80389 | 16213 ft | 371 kts | 250° |
| 2026-05-04 16:52 | 64.43696 | 39.74877 | 16773 ft | 374 kts | 250° |
| 2026-05-04 16:53 | 64.41770 | 39.63507 | 17920 ft | 380 kts | 250° |
| 2026-05-04 16:53 | 64.38832 | 39.46349 | 19458 ft | 385 kts | 250° |
| 2026-05-04 16:54 | 64.37840 | 39.40582 | 19948 ft | 386 kts | 250° |
| 2026-05-04 16:55 | 64.33804 | 39.17279 | 21790 ft | 394 kts | 250° |
| 2026-05-04 16:55 | 64.31748 | 39.05508 | 22633 ft | 398 kts | 250° |
| 2026-05-04 16:56 | 64.29673 | 38.93693 | 23417 ft | 402 kts | 250° |
| 2026-05-04 16:56 | 64.25543 | 38.76752 | 24369 ft | 413 kts | 234° |
| 2026-05-04 16:57 | 64.23576 | 38.71931 | 24672 ft | 419 kts | 226° |
| 2026-05-04 16:57 | 64.19262 | 38.63731 | 25230 ft | 424 kts | 224° |
| 2026-05-04 16:58 | 64.12390 | 38.50883 | 26114 ft | 427 kts | 224° |
| 2026-05-04 16:58 | 64.10091 | 38.46572 | 26542 ft | 424 kts | 224° |
| 2026-05-04 16:59 | 64.05564 | 38.38087 | 27396 ft | 420 kts | 224° |
| 2026-05-04 17:00 | 63.96553 | 38.21269 | 29017 ft | 416 kts | 224° |
| 2026-05-04 17:00 | 63.89856 | 38.08862 | 30109 ft | 413 kts | 224° |
| 2026-05-04 17:01 | 63.85375 | 38.00601 | 30541 ft | 416 kts | 224° |
| 2026-05-04 17:01 | 63.80869 | 37.92334 | 31054 ft | 417 kts | 224° |
| 2026-05-04 17:02 | 63.76343 | 37.84066 | 31561 ft | 418 kts | 224° |
| 2026-05-04 17:02 | 63.71807 | 37.75815 | 32077 ft | 419 kts | 224° |
| 2026-05-04 17:03 | 63.69538 | 37.71699 | 32293 ft | 420 kts | 224° |
| 2026-05-04 17:03 | 63.67261 | 37.67579 | 32516 ft | 420 kts | 224° |
| 2026-05-04 17:03 | 63.62737 | 37.59419 | 33083 ft | 419 kts | 224° |
| 2026-05-04 17:04 | 63.58182 | 37.51238 | 33521 ft | 420 kts | 224° |
| 2026-05-04 17:04 | 63.53607 | 37.43054 | 33962 ft | 420 kts | 224° |
| 2026-05-04 17:05 | 63.49031 | 37.34893 | 34289 ft | 422 kts | 223° |
| 2026-05-04 17:05 | 63.44423 | 37.26718 | 34635 ft | 423 kts | 223° |
| 2026-05-04 17:06 | 63.40044 | 37.18038 | 34970 ft | 417 kts | 234° |
| 2026-05-04 17:06 | 63.38215 | 37.13023 | 35132 ft | 417 kts | 235° |
| 2026-05-04 17:07 | 63.34568 | 37.02961 | 35476 ft | 418 kts | 234° |
| 2026-05-04 17:07 | 63.33354 | 36.99644 | 35572 ft | 419 kts | 234° |
| 2026-05-04 17:07 | 63.29017 | 36.87909 | 35664 ft | 420 kts | 234° |
| 2026-05-04 17:08 | 63.23496 | 36.72888 | 35654 ft | 416 kts | 239° |
| 2026-05-04 17:09 | 63.20912 | 36.61569 | 35665 ft | 410 kts | 252° |
| 2026-05-04 17:09 | 63.19612 | 36.49819 | 35673 ft | 407 kts | 260° |
| 2026-05-04 17:10 | 63.17064 | 36.19019 | 35662 ft | 408 kts | 260° |
| 2026-05-04 17:11 | 63.15997 | 36.06679 | 35664 ft | 408 kts | 260° |
| 2026-05-04 17:12 | 63.14375 | 35.88152 | 35662 ft | 409 kts | 259° |
| 2026-05-04 17:13 | 63.10590 | 35.57749 | 35660 ft | 411 kts | 255° |
| 2026-05-04 17:14 | 63.07311 | 35.33658 | 35652 ft | 411 kts | 255° |
| 2026-05-04 17:15 | 63.04824 | 35.15474 | 35645 ft | 410 kts | 254° |
| 2026-05-04 17:16 | 63.01500 | 34.91459 | 35638 ft | 410 kts | 254° |
| 2026-05-04 17:17 | 62.98131 | 34.67484 | 35636 ft | 409 kts | 254° |
| 2026-05-04 17:18 | 62.94723 | 34.43624 | 35634 ft | 409 kts | 253° |
| 2026-05-04 17:19 | 62.91285 | 34.19872 | 35632 ft | 408 kts | 253° |
| 2026-05-04 17:20 | 62.87816 | 33.96193 | 35628 ft | 408 kts | 253° |
| 2026-05-04 17:20 | 62.85189 | 33.78482 | 35625 ft | 407 kts | 253° |
| 2026-05-04 17:21 | 62.81671 | 33.55036 | 35618 ft | 407 kts | 253° |
| 2026-05-04 17:22 | 62.79891 | 33.43291 | 35611 ft | 407 kts | 252° |
| 2026-05-04 17:23 | 62.76300 | 33.19842 | 35599 ft | 407 kts | 252° |
| 2026-05-04 17:24 | 62.73584 | 33.02305 | 35594 ft | 407 kts | 252° |
| 2026-05-04 17:25 | 62.69932 | 32.78994 | 35591 ft | 406 kts | 252° |
| 2026-05-04 17:26 | 62.66243 | 32.55743 | 35583 ft | 406 kts | 252° |
| 2026-05-04 17:27 | 62.61580 | 32.26773 | 35578 ft | 406 kts | 251° |
| 2026-05-04 17:28 | 62.59947 | 32.16727 | 35577 ft | 406 kts | 251° |
| 2026-05-04 17:29 | 62.58428 | 32.07412 | 35577 ft | 406 kts | 251° |
| 2026-05-04 17:31 | 62.53672 | 31.78658 | 35575 ft | 405 kts | 251° |
| 2026-05-04 17:32 | 62.48869 | 31.49972 | 35571 ft | 405 kts | 251° |
| 2026-05-04 17:33 | 62.44992 | 31.27098 | 35571 ft | 405 kts | 250° |
| 2026-05-04 17:34 | 62.43292 | 31.09435 | 35467 ft | 408 kts | 270° |
| 2026-05-04 17:34 | 62.43624 | 31.03334 | 35199 ft | 411 kts | 279° |
| 2026-05-04 17:35 | 62.46642 | 30.85982 | 34505 ft | 411 kts | 287° |
| 2026-05-04 17:35 | 62.48778 | 30.74529 | 33548 ft | 412 kts | 285° |
| 2026-05-04 17:35 | 62.49837 | 30.68755 | 32805 ft | 412 kts | 285° |
| 2026-05-04 17:36 | 62.50888 | 30.62973 | 32077 ft | 413 kts | 285° |
| 2026-05-04 17:36 | 62.51934 | 30.57169 | 31341 ft | 413 kts | 284° |
| 2026-05-04 17:36 | 62.52973 | 30.51377 | 30604 ft | 414 kts | 284° |
| 2026-05-04 17:36 | 62.54000 | 30.45632 | 29864 ft | 415 kts | 284° |
| 2026-05-04 17:37 | 62.55054 | 30.39708 | 28944 ft | 417 kts | 284° |
| 2026-05-04 17:37 | 62.56096 | 30.33845 | 28079 ft | 417 kts | 285° |
| 2026-05-04 17:37 | 62.57120 | 30.28070 | 27320 ft | 415 kts | 285° |
| 2026-05-04 17:37 | 62.58149 | 30.22258 | 26714 ft | 410 kts | 285° |
| 2026-05-04 17:38 | 62.59161 | 30.16523 | 26135 ft | 405 kts | 285° |
| 2026-05-04 17:38 | 62.60159 | 30.10847 | 25528 ft | 400 kts | 285° |
| 2026-05-04 17:38 | 62.61143 | 30.05226 | 24946 ft | 397 kts | 284° |
| 2026-05-04 17:38 | 62.62116 | 29.99652 | 24370 ft | 393 kts | 284° |
| 2026-05-04 17:39 | 62.64029 | 29.88636 | 23238 ft | 386 kts | 284° |
| 2026-05-04 17:39 | 62.64971 | 29.83186 | 22593 ft | 384 kts | 285° |
| 2026-05-04 17:39 | 62.65904 | 29.77774 | 21968 ft | 380 kts | 285° |
| 2026-05-04 17:40 | 62.66821 | 29.72437 | 21413 ft | 376 kts | 285° |
| 2026-05-04 17:40 | 62.67731 | 29.67132 | 20845 ft | 372 kts | 285° |
| 2026-05-04 17:40 | 62.68631 | 29.61867 | 20290 ft | 369 kts | 285° |
| 2026-05-04 17:40 | 62.69524 | 29.56627 | 19737 ft | 368 kts | 285° |
| 2026-05-04 17:41 | 62.70408 | 29.51425 | 19190 ft | 367 kts | 285° |
| 2026-05-04 17:41 | 62.71298 | 29.46161 | 18648 ft | 375 kts | 285° |
| 2026-05-04 17:41 | 62.72201 | 29.40807 | 18088 ft | 378 kts | 286° |
| 2026-05-04 17:41 | 62.73108 | 29.35436 | 17451 ft | 375 kts | 286° |
| 2026-05-04 17:42 | 62.74002 | 29.30130 | 16852 ft | 371 kts | 286° |
| 2026-05-04 17:42 | 62.74886 | 29.24874 | 16287 ft | 366 kts | 286° |
| 2026-05-04 17:42 | 62.75756 | 29.19676 | 15734 ft | 363 kts | 286° |
| 2026-05-04 17:42 | 62.76613 | 29.14540 | 15175 ft | 359 kts | 286° |
| 2026-05-04 17:43 | 62.77459 | 29.09448 | 14635 ft | 356 kts | 286° |
| 2026-05-04 17:43 | 62.78300 | 29.04374 | 14095 ft | 353 kts | 286° |
| 2026-05-04 17:43 | 62.79130 | 28.99353 | 13570 ft | 350 kts | 287° |
| 2026-05-04 17:43 | 62.79953 | 28.94366 | 13001 ft | 348 kts | 287° |
| 2026-05-04 17:44 | 62.80773 | 28.89390 | 12429 ft | 346 kts | 287° |
| 2026-05-04 17:44 | 62.81583 | 28.84455 | 11886 ft | 343 kts | 287° |
| 2026-05-04 17:44 | 62.82384 | 28.79559 | 11358 ft | 341 kts | 287° |
| 2026-05-04 17:44 | 62.83173 | 28.74714 | 10800 ft | 339 kts | 287° |
| 2026-05-04 17:45 | 62.83956 | 28.69885 | 10548 ft | 330 kts | 287° |
| 2026-05-04 17:45 | 62.84710 | 28.65225 | 10380 ft | 319 kts | 287° |
| 2026-05-04 17:45 | 62.85433 | 28.60743 | 10223 ft | 308 kts | 287° |
| 2026-05-04 17:45 | 62.86131 | 28.56405 | 10093 ft | 298 kts | 287° |
| 2026-05-04 17:46 | 62.86808 | 28.52184 | 9962 ft | 288 kts | 287° |
| 2026-05-04 17:46 | 62.87453 | 28.48157 | 9835 ft | 279 kts | 287° |
| 2026-05-04 17:46 | 62.88084 | 28.44212 | 9725 ft | 270 kts | 287° |
| 2026-05-04 17:46 | 62.88696 | 28.40385 | 9619 ft | 262 kts | 287° |
| 2026-05-04 17:47 | 62.89287 | 28.36676 | 9449 ft | 256 kts | 287° |
| 2026-05-04 17:47 | 62.89871 | 28.32997 | 9159 ft | 255 kts | 287° |
| 2026-05-04 17:47 | 62.90450 | 28.29336 | 8890 ft | 252 kts | 287° |
| 2026-05-04 17:47 | 62.91066 | 28.25756 | 8609 ft | 252 kts | 297° |
| 2026-05-04 17:48 | 62.92206 | 28.22832 | 8375 ft | 253 kts | 318° |
| 2026-05-04 17:48 | 62.93644 | 28.20611 | 8114 ft | 253 kts | 323° |
| 2026-05-04 17:48 | 62.95109 | 28.18504 | 7842 ft | 251 kts | 323° |
| 2026-05-04 17:48 | 62.96574 | 28.16409 | 7579 ft | 250 kts | 323° |
| 2026-05-04 17:49 | 62.98020 | 28.14330 | 7318 ft | 248 kts | 323° |
| 2026-05-04 17:49 | 62.99468 | 28.12237 | 7063 ft | 247 kts | 323° |
| 2026-05-04 17:49 | 63.00890 | 28.10170 | 6801 ft | 245 kts | 323° |
| 2026-05-04 17:49 | 63.02312 | 28.08095 | 6551 ft | 244 kts | 323° |
| 2026-05-04 17:50 | 63.03503 | 28.06351 | 6332 ft | 243 kts | 323° |
| 2026-05-04 18:17 | 63.05010 | 28.04142 | 6066 ft | 242 kts | 323° |
| 2026-05-04 18:18 | 63.05937 | 28.02779 | 5889 ft | 241 kts | 323° |
| 2026-05-04 18:18 | 63.07330 | 28.00729 | 5622 ft | 240 kts | 323° |
| 2026-05-04 18:18 | 63.08715 | 27.98688 | 5359 ft | 239 kts | 323° |
| 2026-05-04 18:18 | 63.10090 | 27.96659 | 5097 ft | 237 kts | 323° |
| 2026-05-04 18:19 | 63.12849 | 27.92579 | 4620 ft | 244 kts | 323° |
| 2026-05-04 18:19 | 63.14271 | 27.90472 | 4375 ft | 249 kts | 323° |
| 2026-05-04 18:19 | 63.15713 | 27.88330 | 4111 ft | 250 kts | 323° |
| 2026-05-04 18:20 | 63.17154 | 27.86187 | 3854 ft | 249 kts | 323° |
| 2026-05-04 18:20 | 63.18540 | 27.83937 | 3582 ft | 245 kts | 310° |
| 2026-05-04 18:20 | 63.19362 | 27.80687 | 3306 ft | 238 kts | 281° |
| 2026-05-04 18:20 | 63.19423 | 27.77082 | 3060 ft | 234 kts | 259° |
| 2026-05-04 18:21 | 63.18938 | 27.73675 | 2826 ft | 231 kts | 248° |
| 2026-05-04 18:21 | 63.18308 | 27.70464 | 2714 ft | 223 kts | 242° |
| 2026-05-04 18:21 | 63.17285 | 27.68021 | 2698 ft | 213 kts | 215° |
| 2026-05-04 18:21 | 63.15947 | 27.66898 | 2706 ft | 201 kts | 192° |
| 2026-05-04 18:22 | 63.14589 | 27.66986 | 2680 ft | 199 kts | 170° |
| 2026-05-04 18:22 | 63.13266 | 27.68027 | 2687 ft | 198 kts | 161° |
| 2026-05-04 18:22 | 63.12052 | 27.69178 | 2583 ft | 189 kts | 161° |
| 2026-05-04 18:22 | 63.10856 | 27.70318 | 2365 ft | 179 kts | 161° |
| 2026-05-04 18:23 | 63.09737 | 27.71375 | 2257 ft | 175 kts | 161° |
| 2026-05-04 18:23 | 63.08654 | 27.72398 | 2210 ft | 168 kts | 161° |
| 2026-05-04 18:23 | 63.07605 | 27.73442 | 1937 ft | 161 kts | 159° |
| 2026-05-04 18:23 | 63.06641 | 27.74415 | 1640 ft | 148 kts | 162° |
| 2026-05-04 18:24 | 63.05692 | 27.75245 | 1309 ft | 147 kts | 163° |
| 2026-05-04 18:24 | 63.04766 | 27.76048 | 1022 ft | 138 kts | 161° |
| 2026-05-04 18:24 | 63.03893 | 27.76814 | 796 ft | 131 kts | 158° |
| 2026-05-04 18:24 | 63.03043 | 27.77621 | 623 ft | 134 kts | 156° |
| 2026-05-04 18:25 | 63.02178 | 27.78430 | 426 ft | 135 kts | 157° |
| 2026-05-04 18:25 | 63.01332 | 27.79223 | 335 ft | 123 kts | 158° |
| 2026-05-04 18:25 | 63.00674 | 27.79831 | 318 ft | 54 kts | 157° |
| 2026-05-04 18:25 | 63.00629 | 27.79872 | 315 ft | 33 kts | 157° |